createdAt,value
2022-11-18T00:00:49.828Z,12.10
2022-11-18T00:03:39.602Z,12.13
2022-11-18T00:06:33.948Z,12.03
2022-11-18T00:09:22.681Z,11.03
2022-11-18T00:12:26.072Z,11.37
2022-11-18T00:15:15.814Z,11.47
2022-11-18T00:18:09.728Z,11.83
2022-11-18T00:21:03.398Z,12.80
2022-11-18T00:23:55.498Z,12.00
2022-11-18T00:26:45.400Z,11.83
2022-11-18T00:29:36.059Z,11.70
2022-11-18T00:32:29.207Z,11.70
2022-11-18T00:35:18.986Z,12.27
2022-11-18T00:38:11.210Z,12.50
2022-11-18T00:41:08.938Z,12.07
2022-11-18T00:43:58.550Z,12.73
2022-11-18T00:46:51.237Z,12.00
2022-11-18T00:49:39.776Z,12.27
2022-11-18T00:52:35.629Z,12.83
2022-11-18T00:55:24.163Z,11.70
2022-11-18T00:58:19.336Z,12.13
2022-11-18T01:01:10.672Z,12.47
2022-11-18T01:03:59.270Z,12.23
2022-11-18T01:06:47.815Z,11.40
2022-11-18T01:09:45.935Z,13.57
2022-11-18T01:12:54.384Z,12.57
2022-11-18T01:15:47.381Z,13.73
2022-11-18T01:18:35.998Z,11.53
2022-11-18T01:21:25.716Z,12.77
2022-11-18T01:24:14.302Z,12.40
2022-11-18T01:27:03.386Z,12.97
2022-11-18T01:29:54.015Z,13.27
2022-11-18T01:32:43.946Z,12.73
2022-11-18T01:35:36.265Z,13.77
2022-11-18T01:38:24.819Z,13.60
2022-11-18T01:41:22.961Z,12.87
2022-11-18T01:44:26.376Z,12.30
2022-11-18T01:47:16.195Z,13.43
2022-11-18T01:50:06.907Z,12.73
2022-11-18T01:53:00.887Z,13.17
2022-11-18T01:56:03.515Z,13.63
2022-11-18T01:58:56.727Z,13.93
2022-11-18T02:01:48.664Z,15.80
2022-11-18T02:04:40.538Z,13.90
2022-11-18T02:07:34.463Z,14.57
2022-11-18T02:10:27.547Z,11.73
2022-11-18T02:13:16.410Z,14.10
2022-11-18T02:16:12.267Z,14.07
2022-11-18T02:19:05.567Z,14.87
2022-11-18T02:21:59.376Z,14.30
2022-11-18T02:24:56.412Z,14.77
2022-11-18T02:28:02.571Z,14.60
2022-11-18T02:31:04.211Z,14.23
2022-11-18T02:34:00.217Z,14.17
2022-11-18T02:36:52.135Z,12.70
2022-11-18T02:39:45.087Z,13.00
2022-11-18T02:42:35.941Z,13.77
2022-11-18T02:45:27.941Z,14.50
2022-11-18T02:48:21.935Z,14.90
2022-11-18T02:51:13.022Z,14.60
2022-11-18T02:54:06.279Z,14.93
2022-11-18T02:56:58.087Z,13.30
2022-11-18T02:59:46.638Z,14.20
2022-11-18T03:02:43.807Z,14.30
2022-11-18T03:05:41.446Z,14.07
2022-11-18T03:08:33.588Z,13.73
2022-11-18T03:11:28.084Z,13.20
2022-11-18T03:14:22.144Z,14.30
2022-11-18T03:17:14.677Z,14.10
2022-11-18T03:20:11.460Z,13.67
2022-11-18T03:23:09.655Z,13.40
2022-11-18T03:26:02.907Z,13.60
2022-11-18T03:28:55.358Z,12.63
2022-11-18T03:31:50.603Z,12.30
2022-11-18T03:34:43.660Z,13.57
2022-11-18T03:37:37.220Z,12.73
2022-11-18T03:40:29.865Z,11.90
2022-11-18T03:43:26.198Z,13.27
2022-11-18T03:46:24.123Z,13.03
2022-11-18T03:49:30.447Z,13.47
2022-11-18T03:52:27.719Z,11.80
2022-11-18T03:55:21.995Z,12.20
2022-11-18T03:58:22.307Z,12.40
2022-11-18T04:01:13.143Z,13.87
2022-11-18T04:04:04.287Z,12.57
2022-11-18T04:06:58.942Z,13.63
2022-11-18T04:09:49.438Z,12.77
2022-11-18T04:12:45.628Z,12.80
2022-11-18T04:15:39.669Z,13.40
2022-11-18T04:18:29.442Z,12.90
2022-11-18T04:21:24.484Z,14.10
2022-11-18T04:24:23.663Z,13.90
2022-11-18T04:27:15.275Z,12.87
2022-11-18T04:30:05.550Z,13.17
2022-11-18T04:32:59.799Z,13.90
2022-11-18T04:35:48.435Z,14.37
2022-11-18T04:38:39.088Z,15.63
2022-11-18T04:41:41.638Z,14.03
2022-11-18T04:44:32.978Z,11.57
2022-11-18T04:47:21.487Z,14.40
2022-11-18T04:50:18.806Z,14.50
2022-11-18T04:53:08.501Z,15.30
2022-11-18T04:55:57.055Z,15.70
2022-11-18T04:58:49.859Z,14.60
2022-11-18T05:01:40.997Z,14.50
2022-11-18T05:04:32.114Z,15.20
2022-11-18T05:07:24.299Z,15.00
2022-11-18T05:10:15.754Z,14.57
2022-11-18T05:13:03.280Z,15.73
2022-11-18T05:15:54.805Z,15.63
2022-11-18T05:18:48.017Z,15.57
2022-11-18T05:21:39.376Z,16.03
2022-11-18T05:24:33.250Z,15.63
2022-11-18T05:27:21.871Z,14.73
2022-11-18T05:30:20.103Z,15.90
2022-11-18T05:33:10.574Z,15.00
2022-11-18T05:36:06.185Z,16.77
2022-11-18T05:39:05.047Z,15.17
2022-11-18T05:42:14.975Z,16.60
2022-11-18T05:45:05.205Z,15.70
2022-11-18T05:48:04.608Z,16.47
2022-11-18T05:50:55.362Z,17.03
2022-11-18T05:53:56.428Z,15.90
2022-11-18T05:56:45.828Z,15.73
2022-11-18T05:59:43.858Z,17.07
2022-11-18T06:02:43.400Z,15.87
2022-11-18T06:05:36.372Z,15.53
2022-11-18T06:08:30.690Z,15.53
2022-11-18T06:11:22.635Z,14.17
2022-11-18T06:14:20.611Z,15.97
2022-11-18T06:17:11.956Z,16.37
2022-11-18T06:20:04.368Z,15.40
2022-11-18T06:23:08.015Z,15.70
2022-11-18T06:25:58.801Z,16.20
2022-11-18T06:28:50.440Z,15.80
2022-11-18T06:31:38.995Z,16.00
2022-11-18T06:34:41.450Z,16.50
2022-11-18T06:37:32.706Z,15.90
2022-11-18T06:40:21.318Z,15.50
2022-11-18T06:43:39.272Z,14.97
2022-11-18T06:46:45.454Z,15.63
2022-11-18T06:49:49.517Z,15.67
2022-11-18T06:52:41.098Z,15.83
2022-11-18T06:55:31.308Z,17.63
2022-11-18T06:58:19.873Z,16.80
2022-11-18T07:01:12.412Z,16.53
2022-11-18T07:04:02.900Z,17.67
2022-11-18T07:06:54.390Z,17.17
2022-11-18T07:09:43.028Z,17.37
2022-11-18T07:12:31.599Z,17.10
2022-11-18T07:15:20.140Z,16.70
2022-11-18T07:18:08.672Z,17.37
2022-11-18T07:20:57.228Z,16.27
2022-11-18T07:23:47.714Z,16.33
2022-11-18T07:26:36.666Z,15.17
2022-11-18T07:29:27.593Z,15.60
2022-11-18T07:32:16.253Z,16.13
2022-11-18T07:35:04.828Z,15.07
2022-11-18T07:37:53.376Z,15.67
2022-11-18T07:40:46.244Z,16.23
2022-11-18T07:43:37.832Z,15.67
2022-11-18T07:46:29.896Z,14.20
2022-11-18T07:49:21.488Z,14.93
2022-11-18T07:52:13.082Z,13.80
2022-11-18T07:55:04.216Z,14.43
2022-11-18T07:57:57.563Z,14.07
2022-11-18T08:00:46.103Z,13.93
2022-11-18T08:03:34.623Z,13.13
2022-11-18T08:06:23.258Z,14.40
2022-11-18T08:09:12.018Z,13.83
2022-11-18T08:12:00.591Z,14.30
2022-11-18T08:14:50.519Z,13.70
2022-11-18T08:17:39.114Z,14.57
2022-11-18T08:20:27.843Z,13.80
2022-11-18T08:23:16.930Z,13.37
2022-11-18T08:26:06.512Z,14.70
2022-11-18T08:28:55.299Z,12.80
2022-11-18T08:31:46.396Z,12.60
2022-11-18T08:34:34.951Z,13.37
2022-11-18T08:37:23.529Z,14.53
2022-11-18T08:40:12.600Z,13.60
2022-11-18T08:43:01.144Z,12.20
2022-11-18T08:45:49.735Z,13.60
2022-11-18T08:48:39.651Z,13.77
2022-11-18T08:51:28.544Z,14.00
2022-11-18T08:54:17.122Z,14.50
2022-11-18T08:57:06.949Z,13.43
2022-11-18T08:59:58.978Z,14.07
2022-11-18T09:02:49.779Z,13.00
2022-11-18T09:05:39.724Z,13.07
2022-11-18T09:08:29.707Z,12.70
2022-11-18T09:11:19.065Z,13.70
2022-11-18T09:15:06.397Z,12.03
2022-11-18T09:17:16.384Z,12.40
2022-11-18T09:20:05.124Z,12.17
2022-11-18T09:22:55.098Z,12.67
2022-11-18T09:25:43.671Z,12.47
2022-11-18T09:28:32.422Z,10.50
2022-11-18T09:31:21.184Z,10.93
2022-11-18T09:34:10.257Z,12.77
2022-11-18T09:37:00.113Z,12.10
2022-11-18T09:39:50.072Z,12.10
2022-11-18T09:42:46.618Z,11.47
2022-11-18T09:45:37.562Z,12.07
2022-11-18T09:48:47.642Z,12.17
2022-11-18T09:51:39.935Z,10.87
2022-11-18T09:54:30.172Z,10.57
2022-11-18T09:57:21.740Z,11.43
2022-11-18T10:00:15.391Z,10.90
2022-11-18T10:03:06.278Z,10.20
2022-11-18T10:05:59.870Z,10.60
2022-11-18T10:08:54.382Z,10.63
2022-11-18T10:11:51.831Z,10.67
2022-11-18T10:14:49.623Z,9.83
2022-11-18T10:17:45.603Z,10.20
2022-11-18T10:20:39.148Z,9.90
2022-11-18T10:23:31.173Z,9.70
2022-11-18T10:26:34.676Z,8.77
2022-11-18T10:29:23.716Z,8.30
2022-11-18T10:32:14.968Z,8.27
2022-11-18T10:35:03.528Z,8.80
2022-11-18T10:38:07.906Z,8.07
2022-11-18T10:41:01.097Z,7.43
2022-11-18T10:43:51.090Z,7.27
2022-11-18T10:46:39.794Z,7.50
2022-11-18T10:49:29.728Z,7.23
2022-11-18T10:52:20.003Z,7.30
2022-11-18T10:55:22.067Z,7.23
2022-11-18T10:58:12.119Z,6.80
2022-11-18T11:01:06.711Z,6.50
2022-11-18T11:03:58.817Z,6.80
2022-11-18T11:06:48.729Z,6.57
2022-11-18T11:09:37.258Z,6.40
2022-11-18T11:12:28.997Z,7.23
2022-11-18T11:15:20.030Z,5.93
2022-11-18T11:18:30.904Z,6.80
2022-11-18T11:21:20.587Z,6.97
2022-11-18T11:24:13.847Z,7.40
2022-11-18T11:30:20.940Z,7.13
2022-11-18T11:33:20.121Z,5.97
2022-11-18T11:36:17.370Z,6.90
2022-11-18T11:39:10.351Z,5.80
2022-11-18T11:42:06.037Z,7.00
2022-11-18T11:44:58.791Z,7.10
2022-11-18T11:48:06.286Z,7.40
2022-11-18T11:51:03.387Z,6.77
2022-11-18T11:54:08.031Z,6.80
2022-11-18T11:56:57.719Z,6.60
2022-11-18T11:59:50.094Z,7.10
2022-11-18T12:03:04.332Z,7.10
2022-11-18T12:05:54.653Z,6.30
2022-11-18T12:08:49.541Z,7.47
2022-11-18T12:11:43.939Z,6.20
2022-11-18T12:14:40.140Z,7.20
2022-11-18T12:17:34.066Z,6.00
2022-11-18T12:20:41.237Z,6.33
2022-11-18T12:23:30.115Z,6.40
2022-11-18T12:26:34.746Z,6.93
2022-11-18T12:29:25.672Z,6.47
2022-11-18T12:32:28.172Z,6.30
2022-11-18T12:35:34.697Z,6.33
2022-11-18T12:38:31.520Z,6.50
2022-11-18T12:41:48.854Z,6.30
2022-11-18T12:44:40.320Z,6.03
2022-11-18T12:47:43.744Z,6.27
2022-11-18T12:50:47.725Z,7.10
2022-11-18T12:53:42.288Z,6.27
2022-11-18T12:56:34.472Z,6.37
2022-11-18T12:59:29.711Z,6.10
2022-11-18T13:02:24.068Z,5.27
2022-11-18T13:05:21.253Z,5.37
2022-11-18T13:08:14.250Z,5.30
2022-11-18T13:11:32.688Z,4.93
2022-11-18T13:14:40.618Z,4.70
2022-11-18T13:17:49.870Z,4.77
2022-11-18T13:20:39.866Z,5.30
2022-11-18T13:23:47.652Z,5.10
2022-11-18T13:26:37.912Z,4.60
2022-11-18T13:29:30.524Z,4.90
2022-11-18T13:32:22.849Z,4.60
2022-11-18T13:35:13.533Z,4.40
2022-11-18T13:38:02.925Z,4.20
2022-11-18T13:41:12.481Z,5.30
2022-11-18T13:44:15.925Z,4.80
2022-11-18T13:47:13.276Z,4.03
2022-11-18T13:50:05.237Z,4.00
2022-11-18T13:53:00.137Z,4.03
2022-11-18T13:55:50.916Z,3.97
2022-11-18T13:59:10.427Z,3.90
2022-11-18T14:01:54.658Z,3.70
2022-11-18T14:04:51.167Z,3.13
2022-11-18T14:07:40.347Z,3.53
2022-11-18T14:10:39.200Z,3.33
2022-11-18T14:13:29.191Z,3.20
2022-11-18T14:16:32.516Z,3.10
2022-11-18T14:19:30.392Z,3.80
2022-11-18T14:22:21.374Z,3.13
2022-11-18T14:25:24.893Z,3.27
2022-11-18T14:28:14.636Z,3.70
2022-11-18T14:31:04.850Z,3.40
2022-11-18T14:34:11.381Z,3.07
2022-11-18T14:37:02.807Z,2.83
2022-11-18T14:39:57.591Z,3.23
2022-11-18T14:42:46.152Z,3.33
2022-11-18T14:45:34.715Z,3.20
2022-11-18T14:48:29.688Z,3.80
2022-11-18T14:51:20.794Z,4.13
2022-11-18T14:54:13.126Z,7.30
2022-11-18T14:57:04.195Z,5.87
2022-11-18T14:59:52.814Z,6.27
2022-11-18T15:02:41.437Z,11.90
2022-11-18T15:05:33.059Z,12.37
2022-11-18T15:08:21.601Z,13.90
2022-11-18T15:11:10.232Z,13.23
2022-11-18T15:14:00.192Z,13.30
2022-11-18T15:16:52.034Z,22.03
2022-11-18T15:19:41.618Z,12.13
2022-11-18T15:22:30.276Z,6.20
2022-11-18T15:25:18.914Z,8.30
2022-11-18T15:28:07.492Z,9.47
2022-11-18T15:30:57.505Z,8.57
2022-11-18T15:33:47.922Z,6.17
2022-11-18T15:36:36.469Z,6.17
2022-11-18T15:39:25.268Z,5.50
2022-11-18T15:42:18.008Z,6.33
2022-11-18T15:45:11.217Z,5.97
2022-11-18T15:48:01.130Z,6.03
2022-11-18T15:50:54.047Z,5.80
2022-11-18T15:53:42.860Z,6.37
2022-11-18T15:56:32.825Z,6.10
2022-11-18T15:59:21.481Z,7.70
2022-11-18T16:02:12.175Z,5.50
2022-11-18T16:05:02.081Z,6.70
2022-11-18T16:07:54.850Z,6.77
2022-11-18T16:11:01.404Z,6.60
2022-11-18T16:13:49.946Z,6.37
2022-11-18T16:16:39.029Z,7.87
2022-11-18T16:19:32.522Z,6.40
2022-11-18T16:22:22.469Z,7.00
2022-11-18T16:29:01.421Z,7.07
2022-11-18T16:31:52.262Z,5.47
2022-11-18T16:34:41.058Z,6.40
2022-11-18T16:37:31.492Z,6.53
2022-11-18T16:40:20.027Z,6.57
2022-11-18T16:43:08.607Z,6.47
2022-11-18T16:45:57.185Z,6.80
2022-11-18T16:48:45.706Z,6.37
2022-11-18T16:51:35.775Z,6.37
2022-11-18T16:54:26.492Z,6.03
2022-11-18T16:57:16.413Z,5.70
2022-11-18T17:00:06.052Z,5.50
2022-11-18T17:02:54.668Z,5.37
2022-11-18T17:05:45.188Z,5.50
2022-11-18T17:08:37.218Z,5.10
2022-11-18T17:11:27.205Z,5.10
2022-11-18T17:14:15.930Z,4.63
2022-11-18T17:17:44.329Z,4.50
2022-11-18T17:20:32.896Z,4.70
2022-11-18T17:23:21.584Z,4.10
2022-11-18T17:26:10.304Z,4.00
2022-11-18T17:29:00.350Z,4.93
2022-11-18T17:31:48.909Z,4.50
2022-11-18T17:34:37.495Z,4.07
2022-11-18T17:37:26.053Z,4.17
2022-11-18T17:40:15.094Z,4.53
2022-11-18T17:43:06.486Z,3.83
2022-11-18T17:45:57.279Z,4.30
2022-11-18T17:48:45.812Z,4.03
2022-11-18T17:51:34.662Z,4.50
2022-11-18T17:54:23.683Z,5.30
2022-11-18T17:57:12.401Z,6.00
2022-11-18T18:00:00.987Z,5.60
2022-11-18T18:02:50.938Z,6.13
2022-11-18T18:05:39.624Z,7.00
2022-11-18T18:08:28.172Z,6.50
2022-11-18T18:11:17.422Z,5.77
2022-11-18T18:14:14.085Z,5.83
2022-11-18T18:20:47.071Z,5.30
2022-11-18T18:23:35.778Z,6.20
2022-11-18T18:26:30.939Z,6.10
2022-11-18T18:29:20.322Z,5.70
2022-11-18T18:32:10.182Z,6.07
2022-11-18T18:35:00.056Z,6.03
2022-11-18T18:37:50.031Z,6.43
2022-11-18T18:44:22.269Z,7.00
2022-11-18T18:47:09.942Z,6.67
2022-11-18T18:49:58.895Z,6.90
2022-11-18T18:52:50.580Z,6.47
2022-11-18T18:55:44.669Z,5.70
2022-11-18T18:58:34.216Z,5.90
2022-11-18T19:01:24.922Z,5.60
2022-11-18T19:04:14.237Z,5.30
2022-11-18T19:07:05.737Z,5.70
2022-11-18T19:09:54.335Z,5.50
2022-11-18T19:12:44.344Z,5.10
2022-11-18T19:15:33.234Z,4.20
2022-11-18T19:18:24.051Z,3.60
2022-11-18T19:21:15.408Z,3.73
2022-11-18T19:24:04.197Z,3.47
2022-11-18T19:26:54.552Z,4.20
2022-11-18T19:29:44.536Z,3.70
2022-11-18T19:32:35.295Z,3.97
2022-11-18T19:35:24.918Z,3.73
2022-11-18T19:38:13.441Z,3.83
2022-11-18T19:41:03.906Z,4.00
2022-11-18T19:43:54.413Z,3.60
2022-11-18T19:46:47.324Z,3.60
2022-11-18T19:49:37.804Z,3.37
2022-11-18T19:52:26.391Z,3.40
2022-11-18T19:55:15.015Z,4.30
2022-11-18T19:58:06.690Z,4.40
2022-11-18T20:00:55.312Z,4.23
2022-11-18T20:03:45.913Z,4.60
2022-11-18T20:06:35.739Z,4.93
2022-11-18T20:09:25.312Z,4.87
2022-11-18T20:12:14.226Z,4.63
2022-11-18T20:15:02.793Z,4.80
2022-11-18T20:17:51.428Z,5.17
2022-11-18T20:20:42.724Z,6.00
2022-11-18T20:23:31.280Z,6.00
2022-11-18T20:26:20.889Z,5.57
2022-11-18T20:29:09.848Z,6.10
2022-11-18T20:32:02.880Z,6.00
2022-11-18T20:34:56.209Z,6.30
2022-11-18T20:37:52.243Z,5.80
2022-11-18T20:40:40.821Z,6.50
2022-11-18T20:43:35.588Z,6.87
2022-11-18T20:46:27.761Z,6.73
2022-11-18T20:49:16.839Z,7.70
2022-11-18T20:52:05.627Z,7.97
2022-11-18T20:55:05.394Z,8.23
2022-11-18T20:58:01.843Z,8.93
2022-11-18T21:00:56.124Z,8.53
2022-11-18T21:03:53.457Z,9.30
2022-11-18T21:06:45.308Z,8.73
2022-11-18T21:09:33.835Z,9.20
2022-11-18T21:12:23.752Z,9.97
2022-11-18T21:15:12.592Z,9.83
2022-11-18T21:18:04.683Z,10.57
2022-11-18T21:21:15.633Z,9.20
2022-11-18T21:24:05.690Z,9.40
2022-11-18T21:26:56.487Z,9.20
2022-11-18T21:29:49.866Z,9.40
2022-11-18T21:32:43.693Z,8.83
2022-11-18T21:35:35.203Z,9.43
2022-11-18T21:38:28.801Z,9.67
2022-11-18T21:41:20.026Z,8.80
2022-11-18T21:44:11.046Z,9.87
2022-11-18T21:47:01.005Z,9.63
2022-11-18T21:49:57.506Z,9.80
2022-11-18T21:52:49.547Z,9.70
2022-11-18T21:55:39.231Z,9.33
2022-11-18T21:58:33.655Z,9.30
2022-11-18T22:01:26.002Z,9.57
2022-11-18T22:04:37.663Z,9.03
2022-11-18T22:07:34.451Z,8.60
2022-11-18T22:10:26.339Z,7.90
2022-11-18T22:13:22.076Z,8.57
2022-11-18T22:16:13.271Z,8.80
2022-11-18T22:19:09.192Z,8.50
2022-11-18T22:21:59.127Z,8.23
2022-11-18T22:24:48.617Z,8.10
2022-11-18T22:27:40.732Z,9.10
2022-11-18T22:30:31.255Z,7.80
2022-11-18T22:33:22.191Z,7.90
2022-11-18T22:36:12.735Z,8.10
2022-11-18T22:39:04.633Z,7.40
2022-11-18T22:42:10.762Z,7.47
2022-11-18T22:45:01.118Z,7.17
2022-11-18T22:47:52.429Z,7.80
2022-11-18T22:50:45.160Z,7.83
2022-11-18T22:53:38.120Z,7.20
2022-11-18T22:56:33.376Z,7.50
2022-11-18T22:59:22.139Z,7.50
2022-11-18T23:02:22.874Z,7.20
2022-11-18T23:05:11.709Z,7.37
2022-11-18T23:08:02.222Z,7.10
2022-11-18T23:10:54.293Z,8.13
2022-11-18T23:14:04.530Z,7.80
2022-11-18T23:17:21.247Z,7.27
2022-11-18T23:20:12.815Z,8.40
2022-11-18T23:23:01.343Z,8.00
2022-11-18T23:25:56.617Z,8.20
2022-11-18T23:28:49.444Z,7.37
2022-11-18T23:31:38.174Z,7.30
2022-11-18T23:34:28.019Z,8.03
2022-11-18T23:37:16.605Z,9.13
2022-11-18T23:40:05.480Z,8.33
2022-11-18T23:46:45.439Z,8.90
2022-11-18T23:49:36.203Z,8.20
2022-11-18T23:52:24.763Z,8.30
2022-11-18T23:55:15.963Z,8.10
2022-11-18T23:58:05.667Z,8.63
